createdAt,value
2019-01-02T00:01:02.509Z,9.97
2019-01-02T00:03:43.240Z,8.67
2019-01-02T00:06:24.647Z,9.80
2019-01-02T00:09:06.184Z,15.20
2019-01-02T00:11:46.932Z,11.33
2019-01-02T00:14:27.464Z,14.00
2019-01-02T00:17:08.377Z,9.43
2019-01-02T00:19:49.291Z,10.37
2019-01-02T00:22:18.436Z,8.50
2019-01-02T00:25:07.052Z,15.30
2019-01-02T00:27:48.458Z,13.87
2019-01-02T00:30:29.291Z,12.30
2019-01-02T00:33:10.070Z,11.87
2019-01-02T00:35:51.283Z,6.57
2019-01-02T00:38:32.088Z,10.17
2019-01-02T00:41:13.484Z,14.53
2019-01-02T00:43:53.975Z,10.53
2019-01-02T00:46:34.564Z,12.87
2019-01-02T00:49:16.231Z,10.33
2019-01-02T00:51:57.019Z,8.23
2019-01-02T00:54:38.319Z,10.67
2019-01-02T00:57:19.175Z,16.00
2019-01-02T01:00:00.292Z,11.33
2019-01-02T01:02:41.025Z,8.40
2019-01-02T01:05:21.816Z,13.77
2019-01-02T01:08:02.585Z,17.10
2019-01-02T01:10:43.701Z,6.10
2019-01-02T01:13:24.137Z,28.50
2019-01-02T01:16:05.645Z,20.77
2019-01-02T01:18:46.594Z,11.43
2019-01-02T01:21:27.275Z,13.83
2019-01-02T01:24:08.726Z,12.00
2019-01-02T01:26:49.817Z,13.07
2019-01-02T01:29:30.529Z,18.97
2019-01-02T01:32:11.266Z,7.80
2019-01-02T01:34:52.938Z,8.87
2019-01-02T01:37:22.158Z,14.47
2019-01-02T01:40:10.752Z,10.87
2019-01-02T01:43:00.026Z,17.23
2019-01-02T01:45:48.730Z,21.30
2019-01-02T01:48:36.963Z,12.63
2019-01-02T01:51:25.532Z,20.10
2019-01-02T01:54:13.808Z,8.83
2019-01-02T01:57:02.035Z,13.53
2019-01-02T01:59:51.970Z,14.20
2019-01-02T02:02:41.897Z,16.13
2019-01-02T02:05:30.777Z,19.77
2019-01-02T02:08:19.282Z,13.17
2019-01-02T02:11:07.725Z,9.73
2019-01-02T02:13:55.946Z,12.67
2019-01-02T02:16:44.551Z,14.40
2019-01-02T02:19:34.479Z,6.93
2019-01-02T02:22:15.868Z,12.17
2019-01-02T02:24:56.674Z,11.77
2019-01-02T02:27:37.067Z,13.10
2019-01-02T02:30:18.812Z,16.60
2019-01-02T02:32:59.477Z,17.80
2019-01-02T02:35:40.611Z,20.57
2019-01-02T02:38:21.429Z,23.30
2019-01-02T02:40:51.021Z,19.50
2019-01-02T02:43:39.251Z,11.60
2019-01-02T02:46:27.433Z,14.47
2019-01-02T02:49:15.675Z,11.70
2019-01-02T02:52:03.914Z,7.17
2019-01-02T02:54:52.077Z,10.80
2019-01-02T02:57:40.301Z,12.30
2019-01-02T03:00:29.012Z,13.30
2019-01-02T03:03:17.210Z,12.70
2019-01-02T03:06:05.392Z,20.70
2019-01-02T03:08:53.584Z,18.90
2019-01-02T03:11:41.770Z,12.53
2019-01-02T03:14:29.983Z,14.83
2019-01-02T03:17:18.443Z,18.10
2019-01-02T03:20:09.619Z,15.60
2019-01-02T03:22:58.452Z,22.50
2019-01-02T03:25:47.010Z,18.70
2019-01-02T03:28:36.926Z,15.23
2019-01-02T03:31:19.780Z,14.73
2019-01-02T03:34:00.796Z,15.57
2019-01-02T03:36:41.386Z,14.80
2019-01-02T03:39:22.509Z,27.13
2019-01-02T03:42:02.934Z,9.67
2019-01-02T03:44:32.029Z,16.20
2019-01-02T03:47:20.210Z,11.77
2019-01-02T03:50:09.543Z,15.77
2019-01-02T03:52:57.734Z,16.33
2019-01-02T03:55:45.956Z,12.63
2019-01-02T03:58:34.133Z,12.40
2019-01-02T04:01:22.335Z,12.97
2019-01-02T04:04:10.539Z,17.27
2019-01-02T04:06:58.750Z,17.90
2019-01-02T04:09:46.949Z,12.13
2019-01-02T04:12:35.138Z,15.50
2019-01-02T04:15:23.347Z,26.47
2019-01-02T04:18:11.802Z,16.87
2019-01-02T04:21:00.269Z,14.83
2019-01-02T04:23:48.440Z,15.37
2019-01-02T04:26:17.540Z,32.67
2019-01-02T04:29:06.057Z,15.07
2019-01-02T04:31:54.512Z,12.20
2019-01-02T04:34:42.787Z,18.03
2019-01-02T04:37:31.505Z,24.70
2019-01-02T04:40:12.697Z,18.40
2019-01-02T04:45:35.905Z,13.60
2019-01-02T04:48:16.934Z,18.30
2019-01-02T04:50:58.374Z,12.17
2019-01-02T04:53:39.618Z,13.87
2019-01-02T04:56:20.946Z,14.63
2019-01-02T04:59:02.288Z,17.63
2019-01-02T05:01:42.956Z,11.60
2019-01-02T05:07:05.989Z,12.97
2019-01-02T05:09:47.404Z,20.30
2019-01-02T05:12:28.684Z,18.73
2019-01-02T05:15:09.998Z,10.80
2019-01-02T05:17:39.074Z,17.33
2019-01-02T05:20:13.339Z,14.00
2019-01-02T05:23:01.506Z,15.27
2019-01-02T05:25:49.690Z,16.47
2019-01-02T05:28:37.803Z,19.37
2019-01-02T05:31:07.190Z,17.87
2019-01-02T05:33:55.657Z,16.43
2019-01-02T05:36:44.119Z,15.20
2019-01-02T05:39:32.551Z,9.90
2019-01-02T05:42:20.213Z,7.90
2019-01-02T05:45:08.400Z,23.03
2019-01-02T05:47:56.589Z,21.93
2019-01-02T05:50:45.057Z,8.43
2019-01-02T05:53:33.219Z,16.80
2019-01-02T05:56:21.415Z,10.47
2019-01-02T05:58:50.742Z,12.10
2019-01-02T06:01:39.202Z,19.87
2019-01-02T06:04:27.662Z,24.00
2019-01-02T06:07:09.180Z,16.73
2019-01-02T06:09:50.611Z,15.00
2019-01-02T06:12:32.203Z,14.67
2019-01-02T06:15:13.059Z,17.53
2019-01-02T06:17:54.474Z,16.57
2019-01-02T06:20:23.837Z,13.67
2019-01-02T06:23:12.477Z,19.77
2019-01-02T06:26:00.702Z,13.37
2019-01-02T06:28:49.152Z,15.00
2019-01-02T06:31:37.642Z,10.20
2019-01-02T06:34:26.294Z,16.33
2019-01-02T06:36:55.390Z,19.73
2019-01-02T06:39:43.646Z,12.30
2019-01-02T06:42:32.098Z,19.87
2019-01-02T06:45:20.284Z,12.10
2019-01-02T06:48:08.789Z,21.17
2019-01-02T06:50:56.963Z,15.90
2019-01-02T06:53:45.174Z,24.03
2019-01-02T06:56:33.647Z,17.80
2019-01-02T06:59:22.101Z,21.37
2019-01-02T07:01:58.444Z,24.80
2019-01-02T07:04:46.917Z,17.70
2019-01-02T07:07:31.229Z,23.80
2019-01-02T07:10:10.749Z,20.53
2019-01-02T07:12:51.718Z,17.77
2019-01-02T07:15:21.022Z,14.93
2019-01-02T07:18:09.624Z,16.90
2019-01-02T07:20:57.837Z,29.03
2019-01-02T07:23:46.057Z,20.00
2019-01-02T07:26:34.553Z,20.63
2019-01-02T07:29:22.803Z,25.90
2019-01-02T07:32:11.014Z,15.80
2019-01-02T07:35:18.369Z,22.63
2019-01-02T07:38:25.711Z,17.23
2019-01-02T07:41:33.268Z,16.00
2019-01-02T07:44:40.574Z,17.50
2019-01-02T07:47:34.749Z,12.63
2019-01-02T07:50:42.290Z,19.50
2019-01-02T07:53:49.631Z,15.90
2019-01-02T07:56:56.929Z,21.37
2019-01-02T08:00:04.287Z,21.20
2019-01-02T08:03:11.842Z,29.37
2019-01-02T08:05:53.064Z,20.57
2019-01-02T08:08:34.317Z,14.33
2019-01-02T08:11:36.309Z,21.50
2019-01-02T08:14:43.683Z,24.60
2019-01-02T08:17:35.726Z,14.63
2019-01-02T08:20:43.279Z,22.47
2019-01-02T08:23:50.581Z,24.27
2019-01-02T08:26:57.868Z,13.87
2019-01-02T08:30:05.195Z,14.23
2019-01-02T08:32:59.666Z,17.50
2019-01-02T08:36:07.247Z,30.70
2019-01-02T08:39:14.624Z,17.83
2019-01-02T08:42:21.927Z,20.10
2019-01-02T08:45:29.206Z,29.57
2019-01-02T08:48:24.498Z,14.80
2019-01-02T08:51:31.793Z,24.03
2019-01-02T08:54:12.686Z,14.07
2019-01-02T08:56:53.694Z,18.43
2019-01-02T08:59:35.074Z,15.63
2019-01-02T09:02:16.420Z,17.93
2019-01-02T09:04:57.032Z,11.00
2019-01-02T09:07:37.725Z,21.37
2019-01-02T09:10:18.674Z,23.20
2019-01-02T09:13:26.289Z,11.50
2019-01-02T09:16:33.599Z,21.10
2019-01-02T09:19:40.913Z,13.37
2019-01-02T09:22:37.312Z,7.20
2019-01-02T09:25:44.635Z,14.23
2019-01-02T09:28:51.910Z,13.53
2019-01-02T09:31:59.219Z,21.67
2019-01-02T09:35:06.536Z,12.80
2019-01-02T09:38:13.850Z,21.50
2019-01-02T09:41:21.158Z,8.83
2019-01-02T09:44:28.429Z,20.40
2019-01-02T09:47:35.745Z,16.57
2019-01-02T09:50:43.299Z,18.47
2019-01-02T09:53:50.578Z,8.00
2019-01-02T09:56:43.857Z,8.77
2019-01-02T09:59:51.406Z,24.33
2019-01-02T10:02:58.978Z,31.23
2019-01-02T10:06:07.806Z,13.53
2019-01-02T10:09:16.773Z,23.37
2019-01-02T10:12:08.659Z,22.07
2019-01-02T10:15:15.972Z,11.03
2019-01-02T10:18:23.507Z,13.30
2019-01-02T10:21:30.885Z,16.80
2019-01-02T10:24:34.284Z,17.93
2019-01-02T10:27:41.634Z,19.87
2019-01-02T10:30:49.002Z,25.53
2019-01-02T10:33:56.326Z,22.03
2019-01-02T10:36:37.209Z,13.50
2019-01-02T10:39:18.418Z,9.03
2019-01-02T10:41:59.040Z,17.40
2019-01-02T10:44:39.962Z,18.70
2019-01-02T10:47:20.950Z,22.67
2019-01-02T10:50:28.326Z,17.07
2019-01-02T10:53:35.642Z,17.93
2019-01-02T10:56:43.236Z,13.73
2019-01-02T10:59:50.567Z,11.67
2019-01-02T11:02:57.924Z,21.97
2019-01-02T11:06:05.224Z,23.33
2019-01-02T11:09:12.557Z,15.47
2019-01-02T11:12:20.150Z,10.07
2019-01-02T11:15:27.455Z,11.40
2019-01-02T11:18:34.839Z,12.73
2019-01-02T11:21:42.111Z,10.30
2019-01-02T11:24:49.687Z,10.77
2019-01-02T11:27:56.976Z,13.47
2019-01-02T11:30:51.748Z,22.40
2019-01-02T11:33:54.540Z,10.20
2019-01-02T11:36:50.570Z,16.47
2019-01-02T11:39:57.890Z,8.97
2019-01-02T11:43:05.194Z,8.63
2019-01-02T11:45:53.395Z,7.20
2019-01-02T11:48:41.838Z,7.63
2019-01-02T11:51:22.461Z,11.30
2019-01-02T11:54:03.509Z,10.20
2019-01-02T11:56:32.657Z,13.63
2019-01-02T11:59:20.884Z,20.03
2019-01-02T12:02:09.342Z,12.93
2019-01-02T12:04:57.572Z,12.17
2019-01-02T12:07:45.752Z,19.43
2019-01-02T12:10:33.993Z,8.53
2019-01-02T12:13:22.183Z,13.40
2019-01-02T12:16:10.639Z,4.50
2019-01-02T12:18:58.818Z,10.07
2019-01-02T12:21:47.022Z,4.80
2019-01-02T12:24:35.199Z,6.37
2019-01-02T12:27:04.566Z,5.80
2019-01-02T12:29:52.796Z,6.67
2019-01-02T12:32:40.973Z,7.30
2019-01-02T12:35:29.476Z,5.90
2019-01-02T12:38:17.624Z,4.57
2019-01-02T12:41:05.882Z,10.83
2019-01-02T12:43:54.066Z,6.20
2019-01-02T12:46:42.555Z,6.43
2019-01-02T12:49:23.672Z,9.83
2019-01-02T12:52:04.531Z,7.07
2019-01-02T12:54:45.320Z,9.17
2019-01-02T12:57:26.088Z,9.97
2019-01-02T13:00:07.441Z,4.53
2019-01-02T13:02:47.886Z,6.17
2019-01-02T13:05:29.355Z,8.70
2019-01-02T13:08:36.699Z,5.00
2019-01-02T13:11:31.875Z,4.57
2019-01-02T13:14:39.152Z,7.50
2019-01-02T13:17:46.538Z,7.23
2019-01-02T13:20:53.867Z,3.30
2019-01-02T13:24:01.404Z,3.27
2019-01-02T13:27:08.720Z,4.87
2019-01-02T13:30:15.990Z,8.10
2019-01-02T13:33:23.362Z,10.43
2019-01-02T13:36:30.689Z,3.57
2019-01-02T13:39:37.968Z,3.40
2019-01-02T13:42:45.319Z,9.00
2019-01-02T13:45:52.643Z,8.70
2019-01-02T13:48:59.919Z,2.23
2019-01-02T13:51:41.183Z,2.17
2019-01-02T13:54:22.586Z,2.60
2019-01-02T13:57:03.880Z,5.87
2019-01-02T13:59:44.607Z,5.60
2019-01-02T14:02:25.210Z,4.13
2019-01-02T14:05:05.995Z,2.57
2019-01-02T14:07:46.759Z,2.50
2019-01-02T14:10:27.682Z,8.47
2019-01-02T14:13:09.029Z,7.30
2019-01-02T14:15:50.414Z,7.03
2019-01-02T14:18:31.340Z,5.23
2019-01-02T14:21:12.303Z,3.87
2019-01-02T14:23:53.454Z,3.33
2019-01-02T14:26:34.162Z,4.50
2019-01-02T14:29:14.863Z,9.10
2019-01-02T14:31:55.981Z,5.30
2019-01-02T14:34:37.255Z,3.07
2019-01-02T14:37:18.063Z,3.93
2019-01-02T14:39:59.531Z,2.60
2019-01-02T14:42:40.108Z,5.07
2019-01-02T14:45:21.446Z,4.07
2019-01-02T14:51:01.052Z,4.10
2019-01-02T14:53:41.619Z,3.40
2019-01-02T14:56:22.679Z,4.20
2019-01-02T14:59:03.410Z,5.97
2019-01-02T15:01:32.838Z,7.87
2019-01-02T15:04:21.019Z,4.33
2019-01-02T15:07:09.246Z,10.50
2019-01-02T15:09:57.787Z,2.40
2019-01-02T15:12:26.967Z,7.63
2019-01-02T15:14:56.039Z,8.53
2019-01-02T15:17:44.519Z,6.07
2019-01-02T15:20:32.763Z,3.07
2019-01-02T15:23:01.831Z,4.20
2019-01-02T15:25:50.055Z,4.77
2019-01-02T15:28:38.229Z,3.67
2019-01-02T15:31:26.516Z,3.37
2019-01-02T15:34:14.962Z,5.10
2019-01-02T15:37:03.176Z,3.17
2019-01-02T15:39:32.501Z,4.87
2019-01-02T15:42:20.733Z,6.33
2019-01-02T15:45:08.907Z,4.93
2019-01-02T15:47:57.383Z,6.43
2019-01-02T15:50:26.762Z,5.77
2019-01-02T15:53:15.264Z,5.37
2019-01-02T15:56:03.584Z,6.20
2019-01-02T15:58:32.655Z,7.87
2019-01-02T16:01:21.130Z,5.43
2019-01-02T16:04:09.312Z,3.77
2019-01-02T16:06:57.635Z,2.70
2019-01-02T16:09:45.816Z,4.43
2019-01-02T16:12:15.010Z,1.47
2019-01-02T16:14:44.131Z,3.60
2019-01-02T16:17:32.350Z,5.47
2019-01-02T16:20:20.530Z,2.37
2019-01-02T16:22:49.901Z,8.47
2019-01-02T16:25:38.074Z,4.67
2019-01-02T16:28:26.324Z,9.57
2019-01-02T16:31:07.694Z,3.83
2019-01-02T16:33:36.778Z,4.47
2019-01-02T16:36:25.751Z,4.13
2019-01-02T16:39:13.923Z,3.07
2019-01-02T16:41:43.071Z,7.47
2019-01-02T16:44:31.247Z,4.70
2019-01-02T16:47:19.746Z,8.80
2019-01-02T16:50:08.554Z,11.43
2019-01-02T16:52:38.235Z,6.83
2019-01-02T16:55:26.458Z,4.83
2019-01-02T16:58:14.971Z,3.90
2019-01-02T17:01:03.582Z,5.47
2019-01-02T17:03:52.074Z,3.53
2019-01-02T17:06:22.161Z,5.00
2019-01-02T17:09:11.375Z,4.13
2019-01-02T17:11:59.884Z,14.07
2019-01-02T17:14:48.127Z,5.20
2019-01-02T17:17:17.266Z,8.00
2019-01-02T17:19:46.578Z,9.10
2019-01-02T17:22:34.819Z,3.70
2019-01-02T17:25:23.005Z,4.50
2019-01-02T17:28:11.553Z,4.67
2019-01-02T17:30:52.800Z,3.77
2019-01-02T17:33:34.004Z,10.43
2019-01-02T17:36:15.193Z,2.90
2019-01-02T17:38:56.092Z,4.03
2019-01-02T17:41:37.333Z,9.63
2019-01-02T17:44:17.984Z,4.80
2019-01-02T17:46:58.651Z,9.07
2019-01-02T17:49:39.481Z,5.23
2019-01-02T17:52:20.751Z,6.27
2019-01-02T17:55:01.323Z,7.00
2019-01-02T17:57:42.731Z,19.90
2019-01-02T18:00:24.360Z,9.40
2019-01-02T18:03:04.883Z,2.70
2019-01-02T18:05:45.864Z,5.80
2019-01-02T18:08:26.806Z,3.70
2019-01-02T18:11:07.436Z,9.30
2019-01-02T18:13:48.706Z,2.43
2019-01-02T18:16:29.546Z,6.63
2019-01-02T18:19:10.343Z,4.20
2019-01-02T18:21:51.997Z,10.87
2019-01-02T18:24:31.291Z,6.00
2019-01-02T18:27:19.519Z,12.57
2019-01-02T18:32:57.201Z,15.67
2019-01-02T18:35:45.674Z,13.37
2019-01-02T18:38:33.874Z,6.53
2019-01-02T18:41:03.108Z,4.67
2019-01-02T18:43:32.446Z,6.20
2019-01-02T18:46:20.916Z,7.37
2019-01-02T18:49:09.697Z,8.67
2019-01-02T18:51:39.020Z,12.90
2019-01-02T18:54:27.242Z,8.87
2019-01-02T18:57:15.407Z,8.13
2019-01-02T19:00:06.364Z,10.07
2019-01-02T19:02:53.762Z,8.33
2019-01-02T19:05:42.236Z,9.10
2019-01-02T19:08:30.409Z,6.00
2019-01-02T19:11:18.930Z,7.07
2019-01-02T19:14:07.154Z,10.90
2019-01-02T19:16:55.863Z,9.80
2019-01-02T19:19:44.104Z,6.70
2019-01-02T19:22:13.402Z,13.80
2019-01-02T19:25:01.628Z,16.23
2019-01-02T19:27:49.790Z,13.53
2019-01-02T19:30:38.026Z,18.03
2019-01-02T19:33:26.211Z,16.00
2019-01-02T19:36:14.431Z,8.20
2019-01-02T19:39:02.802Z,9.77
2019-01-02T19:45:02.836Z,8.27
2019-01-02T19:47:51.154Z,6.27
2019-01-02T19:50:39.428Z,12.37
2019-01-02T19:53:27.683Z,9.13
2019-01-02T19:56:16.205Z,9.67
2019-01-02T19:59:04.533Z,11.57
2019-01-02T20:01:53.139Z,9.20
2019-01-02T20:04:41.681Z,11.33
2019-01-02T20:07:30.166Z,11.90
2019-01-02T20:10:18.772Z,9.37
2019-01-02T20:12:59.292Z,10.60
2019-01-02T20:15:40.129Z,12.27
2019-01-02T20:18:20.834Z,7.73
2019-01-02T20:21:02.783Z,14.43
2019-01-02T20:26:31.533Z,12.80
2019-01-02T20:29:09.297Z,12.60
2019-01-02T20:31:49.757Z,15.40
2019-01-02T20:34:19.270Z,13.30
2019-01-02T20:37:07.835Z,12.70
2019-01-02T20:39:56.953Z,25.80
2019-01-02T20:42:45.596Z,12.33
2019-01-02T20:45:34.129Z,8.50
2019-01-02T20:48:15.531Z,10.70
2019-01-02T20:53:38.596Z,6.70
2019-01-02T20:56:20.021Z,11.13
2019-01-02T20:59:00.678Z,5.60
2019-01-02T21:04:24.037Z,5.83
2019-01-02T21:07:04.701Z,11.97
2019-01-02T21:09:45.921Z,6.37
2019-01-02T21:15:09.883Z,6.77
2019-01-02T21:17:50.810Z,5.07
2019-01-02T21:20:31.376Z,11.80
2019-01-02T21:23:12.937Z,7.63
2019-01-02T21:25:54.068Z,8.63
2019-01-02T21:28:34.796Z,7.53
2019-01-02T21:31:16.146Z,12.27
2019-01-02T21:33:57.361Z,7.00
2019-01-02T21:36:38.143Z,5.40
2019-01-02T21:39:19.140Z,7.10
2019-01-02T21:42:00.309Z,8.20
2019-01-02T21:44:41.316Z,5.00
2019-01-02T21:47:10.726Z,4.70
2019-01-02T21:49:59.087Z,4.27
2019-01-02T21:52:47.538Z,8.53
2019-01-02T21:55:35.789Z,8.50
2019-01-02T21:58:23.977Z,6.73
2019-01-02T22:01:12.203Z,8.83
2019-01-02T22:04:00.714Z,36.10
2019-01-02T22:06:49.323Z,37.03
2019-01-02T22:09:37.567Z,53.33
2019-01-02T22:12:26.164Z,19.90
2019-01-02T22:15:14.402Z,17.03
2019-01-02T22:18:02.591Z,11.77
2019-01-02T22:20:50.818Z,27.47
2019-01-02T22:23:39.547Z,13.60
2019-01-02T22:26:27.754Z,15.50
2019-01-02T22:29:08.923Z,17.87
2019-01-02T22:31:50.203Z,11.33
2019-01-02T22:34:30.978Z,10.80
2019-01-02T22:39:43.354Z,9.20
2019-01-02T22:42:31.550Z,13.10
2019-01-02T22:45:19.805Z,8.40
2019-01-02T22:48:08.855Z,12.77
2019-01-02T22:50:57.050Z,9.80
2019-01-02T22:53:45.259Z,15.03
2019-01-02T22:56:33.456Z,17.03
2019-01-02T22:59:21.707Z,9.03
2019-01-02T23:02:28.928Z,7.07
2019-01-02T23:05:36.158Z,11.93
2019-01-02T23:08:43.358Z,18.33
2019-01-02T23:11:50.897Z,8.63
2019-01-02T23:14:50.434Z,10.37
2019-01-02T23:17:57.642Z,17.83
2019-01-02T23:21:05.148Z,8.53
2019-01-02T23:24:10.503Z,9.70
2019-01-02T23:27:17.987Z,10.47
2019-01-02T23:30:06.124Z,9.13
2019-01-02T23:33:14.046Z,14.93
2019-01-02T23:36:21.277Z,13.23
2019-01-02T23:39:28.487Z,10.03
2019-01-02T23:42:30.927Z,17.23
2019-01-02T23:45:38.426Z,8.50
2019-01-02T23:48:45.907Z,12.53
2019-01-02T23:51:53.150Z,14.63
2019-01-02T23:55:00.364Z,11.13
2019-01-02T23:58:07.846Z,5.53
